Mourad Didouche — 7TJC — position and weather

sailwx.info

Track history (hours):
 
Tides and Currents Weather Stations Pressure Air Temp Water Temp Dewpoint Dewpoint Depression Visibility Wind Speed Wind Dir Waves Ship Positions

Mourad Didouche

Last reported at 2018-Jun-24 22:56 UTC. Time now 2018-Jun-25 10:10 UTC.
Position N 35°51' W 000°11'.

Length 274 m; draft 9.6 m.

Type: Ship (hazmat cat B). MMSI: 605106030.

Date/timePositionNaut miles runAvg speedWind from/ knotsBaromVisibWave heightAir tempDewpointWater temp
2018-Jun-24 22:56N 35°51' W 000°11'0 0.0
2018-Jun-24 21:32N 35°51' W 000°11'0 0.1
2018-Jun-24 21:20N 35°51' W 000°11'0 0.0
2018-Jun-24 20:38N 35°51' W 000°11'0 0.0
2018-Jun-24 20:26N 35°51' W 000°11'0 0.0
2018-Jun-24 19:59N 35°51' W 000°11'0 0.0
2018-Jun-24 18:14N 35°51' W 000°11'0 0.0
2018-Jun-24 17:44N 35°51' W 000°11'0 0.1
2018-Jun-24 17:26N 35°51' W 000°11'0 0.0
2018-Jun-24 16:50N 35°51' W 000°11'0 0.1
2018-Jun-24 16:29N 35°51' W 000°11'0 0.0
2018-Jun-24 14:42N 35°51' W 000°11'0 0.2
2018-Jun-24 14:26N 35°51' W 000°11'0 0.3
2018-Jun-24 13:59N 35°51' W 000°11'40 4.2
2018-Jun-24 04:20N 36°22' E 000°20'3 8.4
2018-Jun-24 04:00N 36°24' E 000°23'4 8.3
2018-Jun-24 03:30N 36°26' E 000°27'4 8.3
2018-Jun-24 03:00N 36°29' E 000°31'5 8.5
2018-Jun-24 02:25N 36°31' E 000°37'4 8.8
2018-Jun-24 02:00N 36°33' E 000°41'5 9.0
2018-Jun-24 01:27N 36°35' E 000°46'4 9.4
2018-Jun-24 00:59N 36°37' E 000°51'8 9.1
2018-Jun-24 00:06N 36°41' E 001°00'1 9.3
2018-Jun-24 00:00N 36°41' E 001°01'6 8.9
2018-Jun-23 23:23N 36°41' E 001°08'3 8.5
2018-Jun-23 23:00N 36°41' E 001°12'7 8.7
2018-Jun-23 22:13N 36°42' E 001°21'6 9.0
2018-Jun-23 21:35N 36°42' E 001°28'1 9.0
2018-Jun-23 21:30N 36°43' E 001°29'1 2.1
2018-Jun-23 21:01N 36°44' E 001°29'4 8.2
2018-Jun-23 20:30N 36°43' E 001°24'2 3.4
2018-Jun-23 20:01N 36°43' E 001°22'5 9.2
2018-Jun-23 19:30N 36°43' E 001°28'5 9.3
2018-Jun-23 19:00N 36°43' E 001°33'5 9.5
2018-Jun-23 18:31N 36°44' E 001°39'5 9.7
2018-Jun-23 18:01N 36°45' E 001°45'3 5.4
2018-Jun-23 17:31N 36°46' E 001°48'4 8.2
2018-Jun-23 16:58N 36°45' E 001°43'1 2.8
2018-Jun-23 16:30N 36°44' E 001°42'5 9.7
2018-Jun-23 16:00N 36°45' E 001°48'5 9.6
2018-Jun-23 15:30N 36°46' E 001°54'5 9.5
2018-Jun-23 15:00N 36°46' E 001°60'5 9.4
2018-Jun-23 14:31N 36°47' E 002°05'6 9.8
2018-Jun-23 13:53N 36°48' E 002°13'4 9.9
2018-Jun-23 13:28N 36°49' E 002°18'5 9.8
2018-Jun-23 12:56N 36°50' E 002°25'6 9.7
2018-Jun-23 12:22N 36°51' E 002°31'4 9.6
2018-Jun-23 11:59N 36°51' E 002°36'5 9.4
2018-Jun-23 11:30N 36°52' E 002°41'5 9.3
2018-Jun-23 11:00N 36°53' E 002°47'5 9.4
2018-Jun-23 10:30N 36°54' E 002°53'5 9.6
2018-Jun-23 09:57N 36°55' E 002°59'4 8.7
2018-Jun-23 09:30N 36°57' E 003°04'5 8.9
2018-Jun-23 09:00N 37°00' E 003°07'4 9.0
2018-Jun-23 08:31N 37°02' E 003°13'5 9.6
2018-Jun-23 08:00N 37°03' E 003°19'510.1
2018-Jun-23 07:31N 37°03' E 003°25'612.2
2018-Jun-23 07:01N 37°04' E 003°32'712.9
2018-Jun-23 06:30N 37°06' E 003°40'612.8
2018-Jun-23 06:01N 37°07' E 003°48'612.3
2018-Jun-23 05:31N 37°08' E 003°56'2412.0
2018-Jun-23 03:28N 37°10' E 004°26'2511.7
2018-Jun-23 01:20N 37°13' E 004°57'411.8
2018-Jun-23 01:00N 37°13' E 005°02'39511.2
2018-Jun-21 13:46N 36°44' E 013°16'312.0
2018-Jun-21 13:30N 36°43' E 013°19'612.0
2018-Jun-21 13:00N 36°41' E 013°26'1111.6
2018-Jun-21 12:02N 36°38' E 013°40'111.6
2018-Jun-21 12:00N 36°37' E 013°40'711.3
2018-Jun-21 11:22N 36°34' E 013°48'411.4
2018-Jun-21 10:59N 36°33' E 013°53'611.4
2018-Jun-21 10:29N 36°31' E 013°60'611.5
2018-Jun-21 10:00N 36°29' E 014°06'611.4
2018-Jun-21 09:30N 36°27' E 014°13'711.5
2018-Jun-21 08:52N 36°25' E 014°22'411.9
2018-Jun-21 08:31N 36°24' E 014°27'45310.2
2018-Jun-19 12:12N 37°22' E 023°49'211.6
2018-Jun-19 12:00N 37°25' E 023°48'611.6
2018-Jun-19 11:30N 37°30' E 023°46'611.6
2018-Jun-19 11:01N 37°36' E 023°44'611.8
2018-Jun-19 10:31N 37°41' E 023°41'612.1
2018-Jun-19 10:00N 37°47' E 023°38'510.5
2018-Jun-19 09:30N 37°50' E 023°33'611.8
2018-Jun-19 09:01N 37°51' E 023°26'5 9.5
2018-Jun-19 08:30N 37°54' E 023°21'4 6.8
2018-Jun-19 07:59N 37°57' E 023°23'1 1.7
2018-Jun-19 07:26N 37°58' E 023°24'0 0.0
2018-Jun-19 06:56N 37°58' E 023°24'0 0.0
2018-Jun-19 06:26N 37°58' E 023°24'0 0.0
2018-Jun-19 05:59N 37°58' E 023°24'0 0.0
2018-Jun-19 05:26N 37°58' E 023°24'0 0.0
2018-Jun-19 04:59N 37°58' E 023°24'0 0.0
2018-Jun-19 04:17N 37°58' E 023°24'0 0.0
2018-Jun-19 03:59N 37°58' E 023°24'0 0.0
2018-Jun-19 03:29N 37°58' E 023°24'0 0.0
2018-Jun-19 02:05N 37°58' E 023°24'0 0.0
2018-Jun-19 01:56N 37°58' E 023°24'0 0.0
2018-Jun-19 00:50N 37°58' E 023°24'0 0.0
2018-Jun-18 23:20N 37°58' E 023°24'0 0.0
2018-Jun-18 22:56N 37°58' E 023°24'0 0.0
2018-Jun-18 22:26N 37°58' E 023°24'0 0.0
2018-Jun-18 21:50N 37°58' E 023°24'0 0.0
2018-Jun-18 21:26N 37°58' E 023°24'0 0.0
2018-Jun-18 20:59N 37°58' E 023°24'0 0.0
2018-Jun-18 20:20N 37°58' E 023°24'0 0.0
2018-Jun-18 20:00N 37°58' E 023°24'0 0.0
2018-Jun-18 19:30N 37°58' E 023°24'0 0.0
2018-Jun-18 19:00N 37°58' E 023°24'0 0.0
2018-Jun-18 18:30N 37°58' E 023°24'0 0.0
2018-Jun-18 18:00N 37°58' E 023°24'0 0.0
2018-Jun-18 17:30N 37°58' E 023°24'0 0.0
2018-Jun-18 17:00N 37°58' E 023°24'0 0.0
2018-Jun-18 16:30N 37°58' E 023°24'0 0.0
2018-Jun-18 16:00N 37°58' E 023°24'0 0.0
2018-Jun-18 15:30N 37°58' E 023°24'0 0.0
2018-Jun-18 15:00N 37°58' E 023°24'0 0.0
2018-Jun-18 14:30N 37°58' E 023°24'0 0.0
2018-Jun-18 14:00N 37°58' E 023°24'0 0.0
2018-Jun-18 13:30N 37°58' E 023°24'0 0.0
2018-Jun-18 13:00N 37°58' E 023°24'0 0.0
2018-Jun-18 12:30N 37°58' E 023°24'0 0.0
2018-Jun-18 12:00N 37°58' E 023°24'0 0.0
2018-Jun-18 11:30N 37°58' E 023°24'0 0.0
2018-Jun-18 11:00N 37°58' E 023°24'0 0.0
2018-Jun-18 10:30N 37°58' E 023°24'0 0.0
2018-Jun-18 10:00N 37°58' E 023°24'0 0.0
2018-Jun-18 09:30N 37°58' E 023°24'0 0.0
2018-Jun-18 09:00N 37°58' E 023°24'0 0.0
2018-Jun-18 08:30N 37°58' E 023°24'0 0.3
2018-Jun-18 08:00N 37°57' E 023°24'1 2.3
2018-Jun-18 07:30N 37°57' E 023°23'1 1.3
2018-Jun-18 07:00N 37°57' E 023°23'1 2.9
2018-Jun-18 06:30N 37°55' E 023°22'3 5.6
2018-Jun-18 06:00N 37°52' E 023°21'4 8.6
2018-Jun-18 05:30N 37°51' E 023°26'4 8.5
2018-Jun-18 05:00N 37°50' E 023°31'4 8.7
2018-Jun-18 04:30N 37°51' E 023°37'3 6.3
2018-Jun-18 04:00N 37°49' E 023°40'4 8.0
2018-Jun-18 03:30N 37°45' E 023°42'4 8.2
2018-Jun-18 03:00N 37°42' E 023°44'510.6
2018-Jun-18 02:30N 37°36' E 023°46'  
2018-Jun-15 15:20N 36°31' E 013°55'412.8
2018-Jun-15 15:00N 36°33' E 013°50'1712.8
2018-Jun-15 13:39N 36°38' E 013°29'612.8
2018-Jun-15 13:10N 36°40' E 013°22'212.6
2018-Jun-15 12:59N 36°41' E 013°19'712.5
2018-Jun-15 12:26N 36°43' E 013°11'812.3
2018-Jun-15 11:46N 36°45' E 013°02'  
Track history (hours):
 
Tides and Currents Weather Stations Pressure Air Temp Water Temp Dewpoint Dewpoint Depression Visibility Wind Speed Wind Dir Waves Ship Positions

Mourad Didouche

Last reported at 2018-Jun-24 22:56 UTC. Time now 2018-Jun-25 10:10 UTC.
Position N 35°51' W 000°11'.

Length 274 m; draft 9.6 m.

Type: Ship (hazmat cat B). MMSI: 605106030.

Date/timePositionNaut miles runAvg speedWind from/ knotsBaromVisibWave heightAir tempDewpointWater temp
2018-Jun-24 22:56N 35°51' W 000°11'0 0.0
2018-Jun-24 21:32N 35°51' W 000°11'0 0.1
2018-Jun-24 21:20N 35°51' W 000°11'0 0.0
2018-Jun-24 20:38N 35°51' W 000°11'0 0.0
2018-Jun-24 20:26N 35°51' W 000°11'0 0.0
2018-Jun-24 19:59N 35°51' W 000°11'0 0.0
2018-Jun-24 18:14N 35°51' W 000°11'0 0.0
2018-Jun-24 17:44N 35°51' W 000°11'0 0.1
2018-Jun-24 17:26N 35°51' W 000°11'0 0.0
2018-Jun-24 16:50N 35°51' W 000°11'0 0.1
2018-Jun-24 16:29N 35°51' W 000°11'0 0.0
2018-Jun-24 14:42N 35°51' W 000°11'0 0.2
2018-Jun-24 14:26N 35°51' W 000°11'0 0.3
2018-Jun-24 13:59N 35°51' W 000°11'40 4.2
2018-Jun-24 04:20N 36°22' E 000°20'3 8.4
2018-Jun-24 04:00N 36°24' E 000°23'4 8.3
2018-Jun-24 03:30N 36°26' E 000°27'4 8.3
2018-Jun-24 03:00N 36°29' E 000°31'5 8.5
2018-Jun-24 02:25N 36°31' E 000°37'4 8.8
2018-Jun-24 02:00N 36°33' E 000°41'5 9.0
2018-Jun-24 01:27N 36°35' E 000°46'4 9.4
2018-Jun-24 00:59N 36°37' E 000°51'8 9.1
2018-Jun-24 00:06N 36°41' E 001°00'1 9.3
2018-Jun-24 00:00N 36°41' E 001°01'6 8.9
2018-Jun-23 23:23N 36°41' E 001°08'3 8.5
2018-Jun-23 23:00N 36°41' E 001°12'7 8.7
2018-Jun-23 22:13N 36°42' E 001°21'6 9.0
2018-Jun-23 21:35N 36°42' E 001°28'1 9.0
2018-Jun-23 21:30N 36°43' E 001°29'1 2.1
2018-Jun-23 21:01N 36°44' E 001°29'4 8.2
2018-Jun-23 20:30N 36°43' E 001°24'2 3.4
2018-Jun-23 20:01N 36°43' E 001°22'5 9.2
2018-Jun-23 19:30N 36°43' E 001°28'5 9.3
2018-Jun-23 19:00N 36°43' E 001°33'5 9.5
2018-Jun-23 18:31N 36°44' E 001°39'5 9.7
2018-Jun-23 18:01N 36°45' E 001°45'3 5.4
2018-Jun-23 17:31N 36°46' E 001°48'4 8.2
2018-Jun-23 16:58N 36°45' E 001°43'1 2.8
2018-Jun-23 16:30N 36°44' E 001°42'5 9.7
2018-Jun-23 16:00N 36°45' E 001°48'5 9.6
2018-Jun-23 15:30N 36°46' E 001°54'5 9.5
2018-Jun-23 15:00N 36°46' E 001°60'5 9.4
2018-Jun-23 14:31N 36°47' E 002°05'6 9.8
2018-Jun-23 13:53N 36°48' E 002°13'4 9.9
2018-Jun-23 13:28N 36°49' E 002°18'5 9.8
2018-Jun-23 12:56N 36°50' E 002°25'6 9.7
2018-Jun-23 12:22N 36°51' E 002°31'4 9.6
2018-Jun-23 11:59N 36°51' E 002°36'5 9.4
2018-Jun-23 11:30N 36°52' E 002°41'5 9.3
2018-Jun-23 11:00N 36°53' E 002°47'5 9.4
2018-Jun-23 10:30N 36°54' E 002°53'5 9.6
2018-Jun-23 09:57N 36°55' E 002°59'4 8.7
2018-Jun-23 09:30N 36°57' E 003°04'5 8.9
2018-Jun-23 09:00N 37°00' E 003°07'4 9.0
2018-Jun-23 08:31N 37°02' E 003°13'5 9.6
2018-Jun-23 08:00N 37°03' E 003°19'510.1
2018-Jun-23 07:31N 37°03' E 003°25'612.2
2018-Jun-23 07:01N 37°04' E 003°32'712.9
2018-Jun-23 06:30N 37°06' E 003°40'612.8
2018-Jun-23 06:01N 37°07' E 003°48'612.3
2018-Jun-23 05:31N 37°08' E 003°56'2412.0
2018-Jun-23 03:28N 37°10' E 004°26'2511.7
2018-Jun-23 01:20N 37°13' E 004°57'411.8
2018-Jun-23 01:00N 37°13' E 005°02'39511.2
2018-Jun-21 13:46N 36°44' E 013°16'312.0
2018-Jun-21 13:30N 36°43' E 013°19'612.0
2018-Jun-21 13:00N 36°41' E 013°26'1111.6
2018-Jun-21 12:02N 36°38' E 013°40'111.6
2018-Jun-21 12:00N 36°37' E 013°40'711.3
2018-Jun-21 11:22N 36°34' E 013°48'411.4
2018-Jun-21 10:59N 36°33' E 013°53'611.4
2018-Jun-21 10:29N 36°31' E 013°60'611.5
2018-Jun-21 10:00N 36°29' E 014°06'611.4
2018-Jun-21 09:30N 36°27' E 014°13'711.5
2018-Jun-21 08:52N 36°25' E 014°22'411.9
2018-Jun-21 08:31N 36°24' E 014°27'45310.2
2018-Jun-19 12:12N 37°22' E 023°49'211.6
2018-Jun-19 12:00N 37°25' E 023°48'611.6
2018-Jun-19 11:30N 37°30' E 023°46'611.6
2018-Jun-19 11:01N 37°36' E 023°44'611.8
2018-Jun-19 10:31N 37°41' E 023°41'612.1
2018-Jun-19 10:00N 37°47' E 023°38'510.5
2018-Jun-19 09:30N 37°50' E 023°33'611.8
2018-Jun-19 09:01N 37°51' E 023°26'5 9.5
2018-Jun-19 08:30N 37°54' E 023°21'4 6.8
2018-Jun-19 07:59N 37°57' E 023°23'1 1.7
2018-Jun-19 07:26N 37°58' E 023°24'0 0.0
2018-Jun-19 06:56N 37°58' E 023°24'0 0.0
2018-Jun-19 06:26N 37°58' E 023°24'0 0.0
2018-Jun-19 05:59N 37°58' E 023°24'0 0.0
2018-Jun-19 05:26N 37°58' E 023°24'0 0.0
2018-Jun-19 04:59N 37°58' E 023°24'0 0.0
2018-Jun-19 04:17N 37°58' E 023°24'0 0.0
2018-Jun-19 03:59N 37°58' E 023°24'0 0.0
2018-Jun-19 03:29N 37°58' E 023°24'0 0.0
2018-Jun-19 02:05N 37°58' E 023°24'0 0.0
2018-Jun-19 01:56N 37°58' E 023°24'0 0.0
2018-Jun-19 00:50N 37°58' E 023°24'0 0.0
2018-Jun-18 23:20N 37°58' E 023°24'0 0.0
2018-Jun-18 22:56N 37°58' E 023°24'0 0.0
2018-Jun-18 22:26N 37°58' E 023°24'0 0.0
2018-Jun-18 21:50N 37°58' E 023°24'0 0.0
2018-Jun-18 21:26N 37°58' E 023°24'0 0.0
2018-Jun-18 20:59N 37°58' E 023°24'0 0.0
2018-Jun-18 20:20N 37°58' E 023°24'0 0.0
2018-Jun-18 20:00N 37°58' E 023°24'0 0.0
2018-Jun-18 19:30N 37°58' E 023°24'0 0.0
2018-Jun-18 19:00N 37°58' E 023°24'0 0.0
2018-Jun-18 18:30N 37°58' E 023°24'0 0.0
2018-Jun-18 18:00N 37°58' E 023°24'0 0.0
2018-Jun-18 17:30N 37°58' E 023°24'0 0.0
2018-Jun-18 17:00N 37°58' E 023°24'0 0.0
2018-Jun-18 16:30N 37°58' E 023°24'0 0.0
2018-Jun-18 16:00N 37°58' E 023°24'0 0.0
2018-Jun-18 15:30N 37°58' E 023°24'0 0.0
2018-Jun-18 15:00N 37°58' E 023°24'0 0.0
2018-Jun-18 14:30N 37°58' E 023°24'0 0.0
2018-Jun-18 14:00N 37°58' E 023°24'0 0.0
2018-Jun-18 13:30N 37°58' E 023°24'0 0.0
2018-Jun-18 13:00N 37°58' E 023°24'0 0.0
2018-Jun-18 12:30N 37°58' E 023°24'0 0.0
2018-Jun-18 12:00N 37°58' E 023°24'0 0.0
2018-Jun-18 11:30N 37°58' E 023°24'0 0.0
2018-Jun-18 11:00N 37°58' E 023°24'0 0.0
2018-Jun-18 10:30N 37°58' E 023°24'0 0.0
2018-Jun-18 10:00N 37°58' E 023°24'0 0.0
2018-Jun-18 09:30N 37°58' E 023°24'0 0.0
2018-Jun-18 09:00N 37°58' E 023°24'0 0.0
2018-Jun-18 08:30N 37°58' E 023°24'0 0.3
2018-Jun-18 08:00N 37°57' E 023°24'1 2.3
2018-Jun-18 07:30N 37°57' E 023°23'1 1.3
2018-Jun-18 07:00N 37°57' E 023°23'1 2.9
2018-Jun-18 06:30N 37°55' E 023°22'3 5.6
2018-Jun-18 06:00N 37°52' E 023°21'4 8.6
2018-Jun-18 05:30N 37°51' E 023°26'4 8.5
2018-Jun-18 05:00N 37°50' E 023°31'4 8.7
2018-Jun-18 04:30N 37°51' E 023°37'3 6.3
2018-Jun-18 04:00N 37°49' E 023°40'4 8.0
2018-Jun-18 03:30N 37°45' E 023°42'4 8.2
2018-Jun-18 03:00N 37°42' E 023°44'510.6
2018-Jun-18 02:30N 37°36' E 023°46'  
2018-Jun-15 15:20N 36°31' E 013°55'412.8
2018-Jun-15 15:00N 36°33' E 013°50'1712.8
2018-Jun-15 13:39N 36°38' E 013°29'612.8
2018-Jun-15 13:10N 36°40' E 013°22'212.6
2018-Jun-15 12:59N 36°41' E 013°19'712.5
2018-Jun-15 12:26N 36°43' E 013°11'812.3
2018-Jun-15 11:46N 36°45' E 013°02'  

Dump ship's entire track history